createdAt,value
2024-03-04T00:00:52.146Z,984.81
2024-03-04T00:01:52.136Z,984.82
2024-03-04T00:02:52.098Z,984.82
2024-03-04T00:03:52.056Z,984.83
2024-03-04T00:04:52.125Z,984.84
2024-03-04T00:05:52.028Z,984.84
2024-03-04T00:06:52.078Z,984.86
2024-03-04T00:07:52.024Z,984.87
2024-03-04T00:08:52.043Z,984.88
2024-03-04T00:09:52.020Z,984.89
2024-03-04T00:10:52.009Z,984.90
2024-03-04T00:11:51.969Z,984.91
2024-03-04T00:12:51.969Z,984.93
2024-03-04T00:13:51.983Z,984.94
2024-03-04T00:14:51.950Z,984.95
2024-03-04T00:15:51.938Z,984.95
2024-03-04T00:16:51.943Z,984.94
2024-03-04T00:17:51.945Z,984.93
2024-03-04T00:18:51.949Z,984.93
2024-03-04T00:19:51.885Z,984.93
2024-03-04T00:20:51.883Z,984.93
2024-03-04T00:21:51.869Z,984.93
2024-03-04T00:22:51.948Z,984.94
2024-03-04T00:23:51.900Z,984.94
2024-03-04T00:24:51.848Z,984.95
2024-03-04T00:25:51.825Z,984.95
2024-03-04T00:26:51.824Z,984.95
2024-03-04T00:27:51.824Z,984.96
2024-03-04T00:28:51.809Z,984.98
2024-03-04T00:29:51.781Z,984.99
2024-03-04T00:30:51.779Z,985.01
2024-03-04T00:31:51.762Z,985.02
2024-03-04T00:32:51.795Z,985.03
2024-03-04T00:33:51.759Z,985.02
2024-03-04T00:34:51.739Z,985.02
2024-03-04T00:35:51.727Z,985.02
2024-03-04T00:36:51.736Z,985.03
2024-03-04T00:37:51.786Z,985.05
2024-03-04T00:38:51.698Z,985.07
2024-03-04T00:39:51.673Z,985.09
2024-03-04T00:40:51.673Z,985.12
2024-03-04T00:41:51.695Z,985.12
2024-03-04T00:42:51.655Z,985.13
2024-03-04T00:43:51.640Z,985.12
2024-03-04T00:44:51.631Z,985.11
2024-03-04T00:45:51.615Z,985.11
2024-03-04T00:46:51.653Z,985.10
2024-03-04T00:47:51.634Z,985.10
2024-03-04T00:48:51.595Z,985.10
2024-03-04T00:49:51.581Z,985.10
2024-03-04T00:50:51.593Z,985.10
2024-03-04T00:51:51.586Z,985.09
2024-03-04T00:52:51.558Z,985.10
2024-03-04T00:53:51.533Z,985.10
2024-03-04T00:54:51.537Z,985.12
2024-03-04T00:55:51.533Z,985.14
2024-03-04T00:56:51.516Z,985.16
2024-03-04T00:57:51.500Z,985.17
2024-03-04T00:58:51.491Z,985.19
2024-03-04T00:59:51.488Z,985.21
2024-03-04T01:00:51.526Z,985.22
2024-03-04T01:01:51.473Z,985.22
2024-03-04T01:02:51.453Z,985.24
2024-03-04T01:03:51.461Z,985.25
2024-03-04T01:04:51.539Z,985.27
2024-03-04T01:05:51.430Z,985.29
2024-03-04T01:06:51.408Z,985.30
2024-03-04T01:07:51.384Z,985.31
2024-03-04T01:08:51.386Z,985.32
2024-03-04T01:09:51.404Z,985.32
2024-03-04T01:10:51.748Z,985.32
2024-03-04T01:11:51.340Z,985.33
2024-03-04T01:12:51.337Z,985.33
2024-03-04T01:13:51.329Z,985.33
2024-03-04T01:14:51.692Z,985.33
2024-03-04T01:15:51.298Z,985.35
2024-03-04T01:16:51.328Z,985.37
2024-03-04T01:17:51.280Z,985.40
2024-03-04T01:18:51.275Z,985.43
2024-03-04T01:19:51.297Z,985.46
2024-03-04T01:20:51.254Z,985.49
2024-03-04T01:21:51.237Z,985.50
2024-03-04T01:22:51.232Z,985.52
2024-03-04T01:23:51.227Z,985.53
2024-03-04T01:24:51.454Z,985.55
2024-03-04T01:25:51.190Z,985.56
2024-03-04T01:26:51.189Z,985.57
2024-03-04T01:27:51.224Z,985.58
2024-03-04T01:28:51.184Z,985.58
2024-03-04T01:29:51.150Z,985.58
2024-03-04T01:30:51.146Z,985.58
2024-03-04T01:31:51.142Z,985.57
2024-03-04T01:32:51.197Z,985.56
2024-03-04T01:33:51.130Z,985.54
2024-03-04T01:34:51.107Z,985.52
2024-03-04T01:35:51.084Z,985.50
2024-03-04T01:36:51.085Z,985.48
2024-03-04T01:37:51.082Z,985.47
2024-03-04T01:38:51.068Z,985.46
2024-03-04T01:39:51.050Z,985.45
2024-03-04T01:40:51.058Z,985.45
2024-03-04T01:41:51.034Z,985.46
2024-03-04T01:42:51.026Z,985.46
2024-03-04T01:43:51.008Z,985.47
2024-03-04T01:44:50.992Z,985.48
2024-03-04T01:45:50.984Z,985.49
2024-03-04T01:46:50.976Z,985.50
2024-03-04T01:47:50.990Z,985.52
2024-03-04T01:48:50.958Z,985.54
2024-03-04T01:49:50.957Z,985.56
2024-03-04T01:50:50.928Z,985.58
2024-03-04T01:51:50.945Z,985.61
2024-03-04T01:52:50.921Z,985.63
2024-03-04T01:53:50.898Z,985.66
2024-03-04T01:54:50.881Z,985.68
2024-03-04T01:55:50.877Z,985.69
2024-03-04T01:56:50.872Z,985.69
2024-03-04T01:57:50.867Z,985.70
2024-03-04T01:58:50.844Z,985.70
2024-03-04T01:59:50.856Z,985.71
2024-03-04T02:00:50.937Z,985.72
2024-03-04T02:01:50.953Z,985.72
2024-03-04T02:02:50.811Z,985.73
2024-03-04T02:03:50.794Z,985.75
2024-03-04T02:04:50.847Z,985.77
2024-03-04T02:05:50.797Z,985.78
2024-03-04T02:06:50.757Z,985.80
2024-03-04T02:07:50.752Z,985.80
2024-03-04T02:08:50.738Z,985.81
2024-03-04T02:09:50.727Z,985.81
2024-03-04T02:10:50.891Z,985.81
2024-03-04T02:11:50.709Z,985.82
2024-03-04T02:12:50.694Z,985.82
2024-03-04T02:13:50.689Z,985.82
2024-03-04T02:14:50.668Z,985.83
2024-03-04T02:15:50.679Z,985.84
2024-03-04T02:16:50.666Z,985.84
2024-03-04T02:17:50.679Z,985.84
2024-03-04T02:18:50.640Z,985.85
2024-03-04T02:19:50.650Z,985.86
2024-03-04T02:20:50.619Z,985.87
2024-03-04T02:21:50.602Z,985.87
2024-03-04T02:22:50.587Z,985.87
2024-03-04T02:23:50.581Z,985.88
2024-03-04T02:24:50.594Z,985.90
2024-03-04T02:25:50.559Z,985.90
2024-03-04T02:26:50.552Z,985.91
2024-03-04T02:27:50.554Z,985.92
2024-03-04T02:28:50.525Z,985.93
2024-03-04T02:29:50.552Z,985.95
2024-03-04T02:30:50.501Z,985.95
2024-03-04T02:31:50.538Z,985.95
2024-03-04T02:32:50.499Z,985.95
2024-03-04T02:33:50.487Z,985.95
2024-03-04T02:34:50.483Z,985.94
2024-03-04T02:35:50.463Z,985.94
2024-03-04T02:36:50.455Z,985.93
2024-03-04T02:37:50.434Z,985.95
2024-03-04T02:38:50.439Z,985.95
2024-03-04T02:39:50.416Z,985.95
2024-03-04T02:40:50.536Z,985.96
2024-03-04T02:41:50.399Z,985.98
2024-03-04T02:42:50.382Z,985.99
2024-03-04T02:43:50.385Z,986.01
2024-03-04T02:44:50.363Z,986.03
2024-03-04T02:45:50.358Z,986.05
2024-03-04T02:46:50.359Z,986.07
2024-03-04T02:47:50.358Z,986.08
2024-03-04T02:48:50.333Z,986.11
2024-03-04T02:49:50.304Z,986.12
2024-03-04T02:50:50.302Z,986.13
2024-03-04T02:51:50.283Z,986.14
2024-03-04T02:52:50.312Z,986.15
2024-03-04T02:53:50.267Z,986.15
2024-03-04T02:54:50.262Z,986.17
2024-03-04T02:55:50.244Z,986.18
2024-03-04T02:56:50.236Z,986.19
2024-03-04T02:57:50.247Z,986.20
2024-03-04T02:58:50.238Z,986.21
2024-03-04T02:59:50.199Z,986.22
2024-03-04T03:00:50.259Z,986.22
2024-03-04T03:01:50.301Z,986.23
2024-03-04T03:02:50.202Z,986.25
2024-03-04T03:03:50.159Z,986.26
2024-03-04T03:04:50.162Z,986.28
2024-03-04T03:05:50.144Z,986.29
2024-03-04T03:06:50.158Z,986.31
2024-03-04T03:07:50.141Z,986.33
2024-03-04T03:08:50.124Z,986.36
2024-03-04T03:09:50.099Z,986.38
2024-03-04T03:10:50.187Z,986.41
2024-03-04T03:11:50.102Z,986.44
2024-03-04T03:12:50.092Z,986.46
2024-03-04T03:13:50.072Z,986.47
2024-03-04T03:14:50.062Z,986.47
2024-03-04T03:15:50.041Z,986.47
2024-03-04T03:16:50.067Z,986.47
2024-03-04T03:17:50.068Z,986.47
2024-03-04T03:18:50.021Z,986.47
2024-03-04T03:19:50.017Z,986.48
2024-03-04T03:20:50.018Z,986.50
2024-03-04T03:21:49.993Z,986.52
2024-03-04T03:22:50.300Z,986.54
2024-03-04T03:23:49.972Z,986.56
2024-03-04T03:24:49.970Z,986.57
2024-03-04T03:25:49.949Z,986.57
2024-03-04T03:26:49.955Z,986.59
2024-03-04T03:27:49.922Z,986.60
2024-03-04T03:28:50.046Z,986.61
2024-03-04T03:29:49.923Z,986.62
2024-03-04T03:30:49.914Z,986.64
2024-03-04T03:31:49.889Z,986.65
2024-03-04T03:32:49.908Z,986.65
2024-03-04T03:33:49.866Z,986.66
2024-03-04T03:34:49.871Z,986.65
2024-03-04T03:35:49.880Z,986.65
2024-03-04T03:36:49.877Z,986.65
2024-03-04T03:37:49.838Z,986.66
2024-03-04T03:38:49.814Z,986.66
2024-03-04T03:39:49.813Z,986.67
2024-03-04T03:40:49.845Z,986.67
2024-03-04T03:41:49.789Z,986.68
2024-03-04T03:42:49.790Z,986.69
2024-03-04T03:43:49.800Z,986.70
2024-03-04T03:44:49.777Z,986.71
2024-03-04T03:45:49.734Z,986.73
2024-03-04T03:46:49.741Z,986.77
2024-03-04T03:47:49.752Z,986.80
2024-03-04T03:48:49.725Z,986.83
2024-03-04T03:49:49.705Z,986.85
2024-03-04T03:50:49.688Z,986.86
2024-03-04T03:51:49.678Z,986.87
2024-03-04T03:52:49.677Z,986.88
2024-03-04T03:53:49.675Z,986.88
2024-03-04T03:54:49.646Z,986.89
2024-03-04T03:55:49.631Z,986.91
2024-03-04T03:56:49.646Z,986.92
2024-03-04T03:57:57.727Z,986.93
2024-03-04T03:58:49.622Z,986.95
2024-03-04T03:59:49.589Z,986.96
2024-03-04T04:00:49.599Z,986.97
2024-03-04T04:01:49.700Z,986.99
2024-03-04T04:02:49.590Z,987.00
2024-03-04T04:03:49.564Z,987.03
2024-03-04T04:04:49.547Z,987.05
2024-03-04T04:05:49.532Z,987.05
2024-03-04T04:06:49.525Z,987.05
2024-03-04T04:07:49.534Z,987.06
2024-03-04T04:08:49.509Z,987.07
2024-03-04T04:09:49.492Z,987.08
2024-03-04T04:10:49.518Z,987.10
2024-03-04T04:11:49.528Z,987.11
2024-03-04T04:12:49.491Z,987.13
2024-03-04T04:13:49.444Z,987.15
2024-03-04T04:14:49.443Z,987.16
2024-03-04T04:15:49.436Z,987.17
2024-03-04T04:16:49.443Z,987.19
2024-03-04T04:17:49.463Z,987.19
2024-03-04T04:18:49.415Z,987.19
2024-03-04T04:19:49.387Z,987.21
2024-03-04T04:20:49.393Z,987.20
2024-03-04T04:21:49.384Z,987.23
2024-03-04T04:22:49.369Z,987.23
2024-03-04T04:23:49.369Z,987.27
2024-03-04T04:24:49.349Z,987.28
2024-03-04T04:25:49.375Z,987.30
2024-03-04T04:26:49.352Z,987.30
2024-03-04T04:27:49.327Z,987.32
2024-03-04T04:28:49.312Z,987.33
2024-03-04T04:29:49.284Z,987.34
2024-03-04T04:30:49.317Z,987.35
2024-03-04T04:31:49.339Z,987.36
2024-03-04T04:32:49.387Z,987.36
2024-03-04T04:33:49.251Z,987.37
2024-03-04T04:34:49.278Z,987.39
2024-03-04T04:35:49.238Z,987.40
2024-03-04T04:36:49.262Z,987.41
2024-03-04T04:37:49.250Z,987.42
2024-03-04T04:38:49.223Z,987.44
2024-03-04T04:39:49.181Z,987.47
2024-03-04T04:40:49.230Z,987.50
2024-03-04T04:41:49.195Z,987.54
2024-03-04T04:42:49.183Z,987.57
2024-03-04T04:43:49.156Z,987.59
2024-03-04T04:44:49.159Z,987.60
2024-03-04T04:45:49.146Z,987.62
2024-03-04T04:46:49.129Z,987.63
2024-03-04T04:47:49.155Z,987.65
2024-03-04T04:48:49.101Z,987.65
2024-03-04T04:49:49.124Z,987.67
2024-03-04T04:50:49.082Z,987.69
2024-03-04T04:51:49.060Z,987.71
2024-03-04T04:52:49.060Z,987.70
2024-03-04T04:53:49.051Z,987.72
2024-03-04T04:54:49.049Z,987.74
2024-03-04T04:55:49.072Z,987.73
2024-03-04T04:56:49.026Z,987.75
2024-03-04T04:57:49.069Z,987.75
2024-03-04T04:58:49.007Z,987.75
2024-03-04T04:59:48.979Z,987.74
2024-03-04T05:00:49.027Z,987.74
2024-03-04T05:01:49.012Z,987.73
2024-03-04T05:02:50.610Z,987.73
2024-03-04T05:04:00.524Z,987.71
2024-03-04T05:04:56.938Z,987.72
2024-03-04T05:05:49.005Z,987.74
2024-03-04T05:06:48.916Z,987.75
2024-03-04T05:07:48.917Z,987.76
2024-03-04T05:08:48.904Z,987.78
2024-03-04T05:09:49.266Z,987.79
2024-03-04T05:10:48.874Z,987.79
2024-03-04T05:11:48.864Z,987.81
2024-03-04T05:12:49.014Z,987.82
2024-03-04T05:13:48.854Z,987.82
2024-03-04T05:14:48.846Z,987.82
2024-03-04T05:15:48.826Z,987.82
2024-03-04T05:16:48.921Z,987.82
2024-03-04T05:17:49.141Z,987.83
2024-03-04T05:18:48.793Z,987.84
2024-03-04T05:19:48.776Z,987.86
2024-03-04T05:20:55.838Z,987.88
2024-03-04T05:21:48.785Z,987.90
2024-03-04T05:22:49.396Z,987.93
2024-03-04T05:23:48.746Z,987.94
2024-03-04T05:24:48.737Z,987.97
2024-03-04T05:25:48.717Z,988.00
2024-03-04T05:26:48.734Z,988.02
2024-03-04T05:27:48.709Z,988.04
2024-03-04T05:28:48.692Z,988.05
2024-03-04T05:29:48.671Z,988.06
2024-03-04T05:30:48.619Z,988.07
2024-03-04T05:31:48.667Z,988.09
2024-03-04T05:32:48.668Z,988.11
2024-03-04T05:33:48.671Z,988.13
2024-03-04T05:34:48.633Z,988.14
2024-03-04T05:35:48.613Z,988.15
2024-03-04T05:36:48.574Z,988.15
2024-03-04T05:37:48.565Z,988.16
2024-03-04T05:38:48.536Z,988.19
2024-03-04T05:39:48.593Z,988.22
2024-03-04T05:40:48.569Z,988.27
2024-03-04T05:41:48.512Z,988.30
2024-03-04T05:42:50.585Z,988.36
2024-03-04T05:43:48.496Z,988.38
2024-03-04T05:44:48.486Z,988.41
2024-03-04T05:45:48.482Z,988.42
2024-03-04T05:46:48.529Z,988.43
2024-03-04T05:47:48.476Z,988.43
2024-03-04T05:48:48.474Z,988.43
2024-03-04T05:49:48.463Z,988.43
2024-03-04T05:50:48.433Z,988.44
2024-03-04T05:51:48.403Z,988.45
2024-03-04T05:52:48.438Z,988.47
2024-03-04T05:53:48.390Z,988.50
2024-03-04T05:54:48.395Z,988.53
2024-03-04T05:55:48.417Z,988.54
2024-03-04T05:56:48.363Z,988.56
2024-03-04T05:57:48.347Z,988.59
2024-03-04T05:58:48.349Z,988.63
2024-03-04T05:59:48.340Z,988.65
2024-03-04T06:00:48.331Z,988.65
2024-03-04T06:01:48.325Z,988.66
2024-03-04T06:02:48.296Z,988.68
2024-03-04T06:03:48.283Z,988.69
2024-03-04T06:04:48.368Z,988.70
2024-03-04T06:05:48.260Z,988.72
2024-03-04T06:06:48.266Z,988.73
2024-03-04T06:07:48.253Z,988.75
2024-03-04T06:08:48.284Z,988.77
2024-03-04T06:09:48.235Z,988.78
2024-03-04T06:10:48.295Z,988.80
2024-03-04T06:11:48.196Z,988.81
2024-03-04T06:12:48.192Z,988.81
2024-03-04T06:13:48.187Z,988.80
2024-03-04T06:14:48.203Z,988.80
2024-03-04T06:15:48.157Z,988.80
2024-03-04T06:16:48.208Z,988.79
2024-03-04T06:17:48.190Z,988.79
2024-03-04T06:18:48.149Z,988.80
2024-03-04T06:19:48.149Z,988.80
2024-03-04T06:20:48.109Z,988.82
2024-03-04T06:21:57.179Z,988.83
2024-03-04T06:22:48.118Z,988.86
2024-03-04T06:23:48.081Z,988.88
2024-03-04T06:24:48.063Z,988.89
2024-03-04T06:25:48.100Z,988.92
2024-03-04T06:26:48.045Z,988.93
2024-03-04T06:27:48.024Z,988.95
2024-03-04T06:28:48.067Z,988.96
2024-03-04T06:29:48.081Z,988.97
2024-03-04T06:30:48.004Z,988.96
2024-03-04T06:31:48.041Z,988.96
2024-03-04T06:32:48.061Z,988.96
2024-03-04T06:33:53.183Z,988.95
2024-03-04T06:34:48.034Z,988.96
2024-03-04T06:35:47.952Z,988.97
2024-03-04T06:36:47.938Z,988.97
2024-03-04T06:37:47.955Z,988.98
2024-03-04T06:38:47.926Z,988.97
2024-03-04T06:39:47.899Z,988.97
2024-03-04T06:40:47.927Z,988.97
2024-03-04T06:41:47.899Z,988.97
2024-03-04T06:42:47.894Z,988.97
2024-03-04T06:43:47.901Z,988.96
2024-03-04T06:44:47.858Z,988.98
2024-03-04T06:45:47.836Z,988.98
2024-03-04T06:46:47.877Z,988.99
2024-03-04T06:47:47.878Z,989.00
2024-03-04T06:48:47.815Z,989.03
2024-03-04T06:49:47.834Z,989.06
2024-03-04T06:50:47.827Z,989.07
2024-03-04T06:51:48.066Z,989.09
2024-03-04T06:52:47.846Z,989.11
2024-03-04T06:53:47.757Z,989.13
2024-03-04T06:54:47.755Z,989.14
2024-03-04T06:55:47.821Z,989.16
2024-03-04T06:56:47.773Z,989.17
2024-03-04T06:57:47.723Z,989.19
2024-03-04T06:58:47.703Z,989.21
2024-03-04T06:59:47.698Z,989.24
2024-03-04T07:00:47.720Z,989.26
2024-03-04T07:01:47.784Z,989.28
2024-03-04T07:02:47.659Z,989.28
2024-03-04T07:03:47.665Z,989.28
2024-03-04T07:04:47.707Z,989.28
2024-03-04T07:05:47.661Z,989.27
2024-03-04T07:06:47.615Z,989.27
2024-03-04T07:07:47.670Z,989.27
2024-03-04T07:08:47.595Z,989.28
2024-03-04T07:09:47.724Z,989.29
2024-03-04T07:10:47.661Z,989.30
2024-03-04T07:11:47.569Z,989.30
2024-03-04T07:12:47.614Z,989.31
2024-03-04T07:13:47.613Z,989.32
2024-03-04T07:14:47.553Z,989.33
2024-03-04T07:15:47.523Z,989.35
2024-03-04T07:16:47.539Z,989.36
2024-03-04T07:17:47.516Z,989.39
2024-03-04T07:18:47.495Z,989.40
2024-03-04T07:19:47.580Z,989.41
2024-03-04T07:20:47.465Z,989.42
2024-03-04T07:21:47.480Z,989.42
2024-03-04T07:22:47.520Z,989.42
2024-03-04T07:23:47.458Z,989.43
2024-03-04T07:24:47.446Z,989.43
2024-03-04T07:25:47.426Z,989.43
2024-03-04T07:26:47.405Z,989.43
2024-03-04T07:27:47.396Z,989.45
2024-03-04T07:28:47.432Z,989.46
2024-03-04T07:29:52.805Z,989.46
2024-03-04T07:30:47.371Z,989.47
2024-03-04T07:31:47.426Z,989.48
2024-03-04T07:32:47.423Z,989.49
2024-03-04T07:33:47.352Z,989.48
2024-03-04T07:34:47.356Z,989.49
2024-03-04T07:35:47.314Z,989.49
2024-03-04T07:36:47.291Z,989.50
2024-03-04T07:37:47.358Z,989.49
2024-03-04T07:38:47.302Z,989.50
2024-03-04T07:39:47.291Z,989.51
2024-03-04T07:40:47.268Z,989.51
2024-03-04T07:41:47.258Z,989.52
2024-03-04T07:42:47.271Z,989.53
2024-03-04T07:43:47.305Z,989.54
2024-03-04T07:44:47.220Z,989.54
2024-03-04T07:45:47.224Z,989.55
2024-03-04T07:46:47.288Z,989.55
2024-03-04T07:47:47.222Z,989.55
2024-03-04T07:48:47.195Z,989.56
2024-03-04T07:49:47.216Z,989.56
2024-03-04T07:50:47.154Z,989.57
2024-03-04T07:51:47.155Z,989.58
2024-03-04T07:52:47.184Z,989.60
2024-03-04T07:53:47.147Z,989.62
2024-03-04T07:54:47.113Z,989.63
2024-03-04T07:55:47.157Z,989.64
2024-03-04T07:56:47.091Z,989.66
2024-03-04T07:57:47.107Z,989.67
2024-03-04T07:58:47.078Z,989.68
2024-03-04T07:59:47.078Z,989.70
2024-03-04T08:00:47.067Z,989.72
2024-03-04T08:01:47.123Z,989.73
2024-03-04T08:02:47.047Z,989.74
2024-03-04T08:03:47.023Z,989.75
2024-03-04T08:04:47.147Z,989.76
2024-03-04T08:05:46.999Z,989.78
2024-03-04T08:06:47.013Z,989.78
2024-03-04T08:07:47.067Z,989.78
2024-03-04T08:08:46.972Z,989.79
2024-03-04T08:09:46.972Z,989.80
2024-03-04T08:10:47.029Z,989.81
2024-03-04T08:11:47.001Z,989.81
2024-03-04T08:12:46.959Z,989.81
2024-03-04T08:13:46.956Z,989.82
2024-03-04T08:14:46.901Z,989.83
2024-03-04T08:15:46.910Z,989.84
2024-03-04T08:16:46.931Z,989.84
2024-03-04T08:17:54.826Z,989.84
2024-03-04T08:18:46.864Z,989.84
2024-03-04T08:19:46.931Z,989.84
2024-03-04T08:20:47.492Z,989.85
2024-03-04T08:21:46.869Z,989.85
2024-03-04T08:22:46.976Z,989.86
2024-03-04T08:23:46.815Z,989.88
2024-03-04T08:24:46.798Z,989.88
2024-03-04T08:25:46.838Z,989.88
2024-03-04T08:26:46.784Z,989.88
2024-03-04T08:27:46.773Z,989.88
2024-03-04T08:28:46.766Z,989.88
2024-03-04T08:29:46.772Z,989.88
2024-03-04T08:30:46.777Z,989.90
2024-03-04T08:31:46.741Z,989.91
2024-03-04T08:32:46.751Z,989.92
2024-03-04T08:33:46.711Z,989.93
2024-03-04T08:34:47.045Z,989.93
2024-03-04T08:35:46.692Z,989.94
2024-03-04T08:36:46.697Z,989.95
2024-03-04T08:37:46.721Z,989.96
2024-03-04T08:38:46.654Z,989.98
2024-03-04T08:39:46.679Z,989.99
2024-03-04T08:40:46.723Z,990.01
2024-03-04T08:41:46.820Z,990.03
2024-03-04T08:42:46.624Z,990.04
2024-03-04T08:43:46.750Z,990.06
2024-03-04T08:44:46.602Z,990.07
2024-03-04T08:45:46.592Z,990.08
2024-03-04T08:46:46.714Z,990.08
2024-03-04T08:47:46.626Z,990.08
2024-03-04T08:48:46.563Z,990.08
2024-03-04T08:49:46.604Z,990.07
2024-03-04T08:50:46.528Z,990.07
2024-03-04T08:51:46.525Z,990.08
2024-03-04T08:52:46.688Z,990.10
2024-03-04T08:53:46.537Z,990.12
2024-03-04T08:54:46.485Z,990.14
2024-03-04T08:55:46.552Z,990.15
2024-03-04T08:56:46.470Z,990.17
2024-03-04T08:57:46.480Z,990.16
2024-03-04T08:58:46.527Z,990.16
2024-03-04T08:59:46.438Z,990.15
2024-03-04T09:00:46.452Z,990.16
2024-03-04T09:01:46.507Z,990.15
2024-03-04T09:02:46.422Z,990.14
2024-03-04T09:03:46.398Z,990.15
2024-03-04T09:04:46.518Z,990.14
2024-03-04T09:05:46.380Z,990.14
2024-03-04T09:06:46.363Z,990.14
2024-03-04T09:07:46.441Z,990.14
2024-03-04T09:08:46.349Z,990.14
2024-03-04T09:09:46.336Z,990.13
2024-03-04T09:10:46.386Z,990.13
2024-03-04T09:11:46.373Z,990.14
2024-03-04T09:12:46.308Z,990.14
2024-03-04T09:13:46.361Z,990.13
2024-03-04T09:14:46.286Z,990.13
2024-03-04T09:15:46.278Z,990.15
2024-03-04T09:16:46.303Z,990.14
2024-03-04T09:17:46.308Z,990.14
2024-03-04T09:18:46.243Z,990.14
2024-03-04T09:19:46.278Z,990.14
2024-03-04T09:20:46.221Z,990.14
2024-03-04T09:21:46.244Z,990.14
2024-03-04T09:22:46.233Z,990.15
2024-03-04T09:23:46.201Z,990.14
2024-03-04T09:24:46.170Z,990.14
2024-03-04T09:25:46.206Z,990.14
2024-03-04T09:26:46.204Z,990.15
2024-03-04T09:27:46.153Z,990.18
2024-03-04T09:28:46.205Z,990.18
2024-03-04T09:29:46.125Z,990.19
2024-03-04T09:30:46.126Z,990.19
2024-03-04T09:31:46.190Z,990.20
2024-03-04T09:32:46.116Z,990.21
2024-03-04T09:33:46.103Z,990.22
2024-03-04T09:34:46.109Z,990.23
2024-03-04T09:35:46.093Z,990.24
2024-03-04T09:36:46.045Z,990.26
2024-03-04T09:37:46.176Z,990.25
2024-03-04T09:38:46.056Z,990.27
2024-03-04T09:39:46.034Z,990.27
2024-03-04T09:40:46.193Z,990.28
2024-03-04T09:41:46.003Z,990.30
2024-03-04T09:42:45.980Z,990.32
2024-03-04T09:43:46.033Z,990.34
2024-03-04T09:44:45.979Z,990.33
2024-03-04T09:45:45.958Z,990.36
2024-03-04T09:46:45.973Z,990.37
2024-03-04T09:47:45.948Z,990.37
2024-03-04T09:48:45.924Z,990.38
2024-03-04T09:49:46.018Z,990.40
2024-03-04T09:50:45.905Z,990.40
2024-03-04T09:51:45.894Z,990.43
2024-03-04T09:52:45.918Z,990.42
2024-03-04T09:53:45.878Z,990.42
2024-03-04T09:54:46.325Z,990.43
2024-03-04T09:55:45.971Z,990.42
2024-03-04T09:56:45.837Z,990.43
2024-03-04T09:57:45.833Z,990.43
2024-03-04T09:58:45.952Z,990.43
2024-03-04T09:59:45.833Z,990.42
2024-03-04T10:00:45.808Z,990.41
2024-03-04T10:01:45.954Z,990.41
2024-03-04T10:02:45.827Z,990.44
2024-03-04T10:03:45.797Z,990.42
2024-03-04T10:04:45.787Z,990.44
2024-03-04T10:05:45.746Z,990.44
2024-03-04T10:06:46.081Z,990.43
2024-03-04T10:07:45.750Z,990.44
2024-03-04T10:08:45.730Z,990.45
2024-03-04T10:09:45.705Z,990.45
2024-03-04T10:10:45.803Z,990.46
2024-03-04T10:11:45.999Z,990.47
2024-03-04T10:12:45.692Z,990.46
2024-03-04T10:13:45.835Z,990.50
2024-03-04T10:14:45.649Z,990.48
2024-03-04T10:15:45.651Z,990.51
2024-03-04T10:16:45.740Z,990.52
2024-03-04T10:17:45.705Z,990.51
2024-03-04T10:18:45.622Z,990.52
2024-03-04T10:19:45.706Z,990.53
2024-03-04T10:20:45.624Z,990.54
2024-03-04T10:21:45.618Z,990.55
2024-03-04T10:22:45.623Z,990.57
2024-03-04T10:23:45.563Z,990.57
2024-03-04T10:24:45.555Z,990.57
2024-03-04T10:25:45.618Z,990.58
2024-03-04T10:26:45.609Z,990.59
2024-03-04T10:27:45.534Z,990.59
2024-03-04T10:28:45.584Z,990.61
2024-03-04T10:29:45.501Z,990.63
2024-03-04T10:30:45.550Z,990.59
2024-03-04T10:31:45.563Z,990.59
2024-03-04T10:32:45.516Z,990.57
2024-03-04T10:33:45.470Z,990.57
2024-03-04T10:34:45.483Z,990.57
2024-03-04T10:35:45.451Z,990.55
2024-03-04T10:36:45.436Z,990.56
2024-03-04T10:37:45.442Z,990.56
2024-03-04T10:38:45.411Z,990.56
2024-03-04T10:39:45.416Z,990.55
2024-03-04T10:40:45.470Z,990.54
2024-03-04T10:41:45.396Z,990.55
2024-03-04T10:42:45.358Z,990.56
2024-03-04T10:43:45.424Z,990.56
2024-03-04T10:44:45.342Z,990.56
2024-03-04T10:45:45.354Z,990.55
2024-03-04T10:46:45.331Z,990.55
2024-03-04T10:47:45.347Z,990.55
2024-03-04T10:48:45.630Z,990.58
2024-03-04T10:49:45.358Z,990.54
2024-03-04T10:50:45.298Z,990.55
2024-03-04T10:51:51.848Z,990.55
2024-03-04T10:52:45.349Z,990.55
2024-03-04T10:53:45.266Z,990.56
2024-03-04T10:54:45.267Z,990.56
2024-03-04T10:55:45.277Z,990.57
2024-03-04T10:56:45.211Z,990.58
2024-03-04T10:57:45.228Z,990.58
2024-03-04T10:58:45.321Z,990.57
2024-03-04T10:59:45.209Z,990.60
2024-03-04T11:00:45.177Z,990.60
2024-03-04T11:01:45.431Z,990.60
2024-03-04T11:02:45.149Z,990.62
2024-03-04T11:03:45.147Z,990.61
2024-03-04T11:04:45.983Z,990.63
2024-03-04T11:05:45.127Z,990.64
2024-03-04T11:06:45.120Z,990.61
2024-03-04T11:07:45.595Z,990.64
2024-03-04T11:08:45.123Z,990.62
2024-03-04T11:09:45.148Z,990.63
2024-03-04T11:10:45.219Z,990.62
2024-03-04T11:11:45.076Z,990.64
2024-03-04T11:12:45.049Z,990.64
2024-03-04T11:13:45.152Z,990.64
2024-03-04T11:14:45.038Z,990.62
2024-03-04T11:15:45.026Z,990.63
2024-03-04T11:16:47.040Z,990.64
2024-03-04T11:17:45.039Z,990.64
2024-03-04T11:18:45.004Z,990.65
2024-03-04T11:19:45.492Z,990.64
2024-03-04T11:20:44.968Z,990.65
2024-03-04T11:21:44.952Z,990.65
2024-03-04T11:22:45.337Z,990.67
2024-03-04T11:23:44.955Z,990.67
2024-03-04T11:24:44.926Z,990.68
2024-03-04T11:25:45.047Z,990.68
2024-03-04T11:26:44.904Z,990.71
2024-03-04T11:27:44.912Z,990.71
2024-03-04T11:28:44.959Z,990.71
2024-03-04T11:29:44.872Z,990.74
2024-03-04T11:30:44.865Z,990.73
2024-03-04T11:31:44.949Z,990.73
2024-03-04T11:32:44.919Z,990.73
2024-03-04T11:33:44.828Z,990.73
2024-03-04T11:34:45.192Z,990.73
2024-03-04T11:35:44.866Z,990.73
2024-03-04T11:36:44.884Z,990.75
2024-03-04T11:37:45.252Z,990.76
2024-03-04T11:38:44.860Z,990.78
2024-03-04T11:39:44.784Z,990.79
2024-03-04T11:40:44.879Z,990.78
2024-03-04T11:41:44.830Z,990.78
2024-03-04T11:42:44.734Z,990.78
2024-03-04T11:43:44.992Z,990.78
2024-03-04T11:44:44.731Z,990.78
2024-03-04T11:45:44.754Z,990.78
2024-03-04T11:46:44.789Z,990.79
2024-03-04T11:47:44.729Z,990.79
2024-03-04T11:48:44.687Z,990.81
2024-03-04T11:49:44.757Z,990.82
2024-03-04T11:50:44.663Z,990.82
2024-03-04T11:51:44.687Z,990.83
2024-03-04T11:52:44.677Z,990.83
2024-03-04T11:53:44.623Z,990.83
2024-03-04T11:54:44.654Z,990.82
2024-03-04T11:55:44.680Z,990.82
2024-03-04T11:56:44.617Z,990.82
2024-03-04T11:57:44.588Z,990.84
2024-03-04T11:58:44.652Z,990.83
2024-03-04T11:59:44.553Z,990.84
2024-03-04T12:00:44.592Z,990.85
2024-03-04T12:01:44.621Z,990.85
2024-03-04T12:02:44.604Z,990.85
2024-03-04T12:03:44.511Z,990.85
2024-03-04T12:04:44.575Z,990.85
2024-03-04T12:05:44.518Z,990.87
2024-03-04T12:06:44.489Z,990.86
2024-03-04T12:07:44.512Z,990.87
2024-03-04T12:08:59.532Z,990.87
2024-03-04T12:09:57.142Z,990.87
2024-03-04T12:10:44.541Z,990.89
2024-03-04T12:11:44.474Z,990.89
2024-03-04T12:12:44.647Z,990.90
2024-03-04T12:13:44.484Z,990.91
2024-03-04T12:14:44.417Z,990.95
2024-03-04T12:15:44.382Z,990.92
2024-03-04T12:16:44.425Z,990.93
2024-03-04T12:17:44.398Z,990.94
2024-03-04T12:18:44.365Z,990.95
2024-03-04T12:19:44.457Z,990.96
2024-03-04T12:20:44.352Z,990.96
2024-03-04T12:21:44.325Z,990.98
2024-03-04T12:22:44.333Z,990.99
2024-03-04T12:23:44.312Z,991.00
2024-03-04T12:24:44.315Z,991.01
2024-03-04T12:25:44.342Z,991.00
2024-03-04T12:26:44.274Z,991.00
2024-03-04T12:27:44.258Z,991.00
2024-03-04T12:28:44.496Z,991.00